Time;durP1;ratioP1;P1;durP2;ratioP2;P2;SDS_P1;SDS_P2;PMS_P1;PMS_P2;Temp;Humidity;BMP_temperature;BMP_pressure;BME280_temperature;BME280_humidity;BME280_pressure;Samples;Min_cycle;Max_cycle;Signal;HPM_P1;HPM_P2
2020/12/07 00:02:22;;;;;;;51.57;34.77;;;;;;;5.12;86.85;99401.28;5039768;28;20257;-68
2020/12/07 00:04:47;;;;;;;44.30;33.73;;;;;;;5.14;87.21;99390.13;5038659;28;20198;-71
2020/12/07 00:07:13;;;;;;;46.03;33.20;;;;;;;4.85;88.40;99382.91;5039510;28;20178;-71
2020/12/07 00:09:38;;;;;;;43.30;32.17;;;;;;;4.95;88.59;99398.50;5039525;28;20249;-71
2020/12/07 00:12:03;;;;;;;43.70;31.07;;;;;;;4.93;87.92;99395.91;5039294;28;20179;-71
2020/12/07 00:14:29;;;;;;;48.03;33.30;;;;;;;4.93;87.81;99389.91;5039353;28;20445;-70
2020/12/07 00:16:54;;;;;;;43.87;31.47;;;;;;;4.93;88.23;99395.06;5039208;28;20380;-72
2020/12/07 00:19:19;;;;;;;49.40;35.00;;;;;;;4.90;88.16;99393.31;5039007;28;20230;-71
2020/12/07 00:21:44;;;;;;;45.80;32.90;;;;;;;4.88;88.54;99400.16;5039149;28;20298;-72
2020/12/07 00:24:10;;;;;;;44.53;33.00;;;;;;;4.89;87.77;99399.31;5039047;28;20230;-72
2020/12/07 00:26:36;;;;;;;46.47;32.87;;;;;;;4.68;89.20;99415.41;5039086;28;20563;-72
2020/12/07 00:29:02;;;;;;;42.17;33.33;;;;;;;4.87;88.29;99411.34;5039140;28;20191;-70
2020/12/07 00:31:27;;;;;;;44.13;32.30;;;;;;;4.72;88.52;99415.50;5038944;28;20979;-71
2020/12/07 00:33:58;;;;;;;46.83;32.87;;;;;;;4.86;88.17;99399.28;5038683;28;20174;-67
2020/12/07 00:36:24;;;;;;;47.40;32.43;;;;;;;4.79;87.77;99387.16;5039238;28;20177;-73
2020/12/07 00:38:49;;;;;;;51.47;34.10;;;;;;;4.78;87.89;99383.72;5038739;28;20431;-76
2020/12/07 00:41:19;;;;;;;51.23;36.40;;;;;;;4.80;87.95;99394.06;5038899;28;20429;-75
2020/12/07 00:43:44;;;;;;;44.00;32.20;;;;;;;4.67;88.05;99390.47;5039230;28;20490;-74
2020/12/07 00:46:10;;;;;;;43.60;33.20;;;;;;;4.67;89.30;99401.66;5038959;28;20429;-76
2020/12/07 00:48:35;;;;;;;42.37;33.33;;;;;;;4.72;88.43;99392.25;5038072;28;20177;-77
2020/12/07 00:51:00;;;;;;;40.70;31.40;;;;;;;4.74;87.72;99375.94;5038910;28;20559;-75
2020/12/07 00:53:26;;;;;;;44.53;31.37;;;;;;;4.76;88.37;99389.69;5038539;28;20179;-75
2020/12/07 00:55:51;;;;;;;43.67;31.93;;;;;;;4.52;89.24;99388.59;5038480;28;20559;-76
2020/12/07 00:58:16;;;;;;;42.37;31.90;;;;;;;4.49;89.56;99397.16;5038813;28;20174;-71
2020/12/07 01:00:41;;;;;;;40.60;31.33;;;;;;;4.64;88.62;99380.09;5038420;28;20174;-70
2020/12/07 01:03:07;;;;;;;39.87;30.60;;;;;;;4.77;88.45;99374.22;5038356;28;20489;-70
2020/12/07 01:05:32;;;;;;;40.40;31.07;;;;;;;4.53;88.89;99355.03;5038623;28;20564;-69
2020/12/07 01:07:57;;;;;;;42.17;31.40;;;;;;;4.66;88.99;99363.78;5038208;28;20304;-70
2020/12/07 01:10:23;;;;;;;37.40;30.77;;;;;;;4.54;89.50;99371.38;5038116;28;20437;-75
2020/12/07 01:12:48;;;;;;;40.77;31.33;;;;;;;4.56;88.72;99356.78;5038488;28;20162;-73
2020/12/07 01:15:13;;;;;;;37.90;30.30;;;;;;;4.75;88.63;99357.88;5038040;28;20174;-73
2020/12/07 01:17:38;;;;;;;40.10;31.43;;;;;;;4.60;89.52;99347.34;5038121;28;20659;-73
2020/12/07 01:20:04;;;;;;;40.07;31.17;;;;;;;4.73;88.96;99341.47;5038267;28;20285;-74
2020/12/07 01:22:29;;;;;;;43.70;33.27;;;;;;;4.67;89.24;99352.59;5037986;28;20182;-74
2020/12/07 01:24:54;;;;;;;42.67;33.90;;;;;;;4.60;89.32;99348.25;5037651;28;20229;-72
2020/12/07 01:27:20;;;;;;;39.73;30.90;;;;;;;4.55;88.71;99357.63;5038328;28;20178;-74
2020/12/07 01:29:45;;;;;;;43.57;30.97;;;;;;;4.50;89.78;99349.81;5037098;28;20174;-73
2020/12/07 01:32:10;;;;;;;39.40;30.67;;;;;;;4.48;89.99;99363.56;5037942;28;20182;-74
2020/12/07 01:34:36;;;;;;;37.53;29.37;;;;;;;4.52;89.69;99358.47;5038259;28;20178;-73
2020/12/07 01:37:01;;;;;;;36.57;30.30;;;;;;;4.62;89.71;99351.69;5037729;28;20170;-72
2020/12/07 01:39:26;;;;;;;35.40;27.50;;;;;;;4.71;88.98;99344.03;5037402;28;20174;-74
2020/12/07 01:41:52;;;;;;;36.10;28.30;;;;;;;4.86;89.60;99357.97;5037948;28;20179;-75
2020/12/07 01:44:17;;;;;;;38.33;28.57;;;;;;;4.92;88.69;99358.03;5037635;28;20213;-73
2020/12/07 01:46:43;;;;;;;35.33;28.83;;;;;;;4.95;88.98;99352.91;5027768;28;20528;-72
2020/12/07 01:49:09;;;;;;;37.43;27.37;;;;;;;5.03;89.01;99340.06;5017066;28;20186;-73
2020/12/07 01:51:36;;;;;;;34.87;25.63;;;;;;;4.91;89.27;99343.38;5017848;28;20171;-73
2020/12/07 01:54:01;;;;;;;32.50;26.17;;;;;;;5.17;89.35;99355.69;5017724;28;20497;-71
2020/12/07 01:56:28;;;;;;;32.30;26.23;;;;;;;5.28;88.52;99340.28;5017281;28;20891;-71
2020/12/07 01:58:56;;;;;;;33.43;27.23;;;;;;;5.18;88.53;99321.25;5017450;28;20265;-73
2020/12/07 02:01:21;;;;;;;31.63;26.73;;;;;;;5.27;87.81;99325.63;5017615;28;20426;-72
2020/12/07 02:03:47;;;;;;;35.20;26.40;;;;;;;5.31;88.00;99335.16;5017884;28;20402;-72
2020/12/07 02:06:12;;;;;;;29.27;26.13;;;;;;;5.47;87.19;99328.38;5016730;28;20567;-72
2020/12/07 02:08:37;;;;;;;27.53;24.23;;;;;;;5.47;87.67;99313.72;5017372;28;20261;-72
2020/12/07 02:11:02;;;;;;;29.53;25.50;;;;;;;5.55;86.94;99313.78;5017872;28;20232;-73
2020/12/07 02:13:28;;;;;;;30.67;25.63;;;;;;;5.18;88.10;99319.53;5017465;28;20182;-72
2020/12/07 02:15:53;;;;;;;28.80;24.37;;;;;;;5.34;87.55;99309.31;5017444;28;20170;-73
2020/12/07 02:18:18;;;;;;;32.80;25.03;;;;;;;5.45;87.48;99327.50;5017620;28;20281;-72
2020/12/07 02:20:48;;;;;;;29.40;24.70;;;;;;;5.23;87.75;99322.16;5017564;28;20522;-73
2020/12/07 02:23:13;;;;;;;30.57;24.13;;;;;;;5.21;87.42;99310.97;5017051;28;20242;-72
2020/12/07 02:25:38;;;;;;;29.97;24.90;;;;;;;5.35;87.39;99323.97;5017608;28;20485;-72
2020/12/07 02:28:04;;;;;;;31.57;24.10;;;;;;;5.62;86.77;99322.47;5017331;28;20588;-73
2020/12/07 02:30:29;;;;;;;28.60;24.43;;;;;;;5.68;86.89;99319.91;5017207;28;20258;-72
2020/12/07 02:32:54;;;;;;;29.87;24.80;;;;;;;5.85;87.04;99327.78;5017658;28;20896;-72
2020/12/07 02:35:20;;;;;;;28.70;25.60;;;;;;;5.68;85.75;99313.03;5017149;28;20178;-73
2020/12/07 02:37:46;;;;;;;30.70;24.93;;;;;;;5.56;85.63;99318.09;5016960;28;20179;-72
2020/12/07 02:40:12;;;;;;;26.50;23.43;;;;;;;5.47;86.26;99307.72;5018242;28;20181;-73
2020/12/07 02:42:38;;;;;;;30.13;25.30;;;;;;;5.60;86.47;99314.66;5021233;28;20417;-72
2020/12/07 02:45:07;;;;;;;27.00;23.90;;;;;;;5.60;86.16;99327.59;5021206;28;20313;-73
2020/12/07 02:47:33;;;;;;;28.90;24.83;;;;;;;5.63;85.85;99327.63;5021469;28;20440;-73
2020/12/07 02:49:58;;;;;;;30.50;25.23;;;;;;;5.68;85.81;99320.78;5021069;28;20425;-73
2020/12/07 02:52:24;;;;;;;28.17;24.67;;;;;;;5.82;85.86;99315.69;5020999;28;20171;-72
2020/12/07 02:55:00;;;;;;;29.30;24.10;;;;;;;5.70;85.80;99308.72;5021380;28;20475;-73
2020/12/07 02:57:26;;;;;;;30.50;24.10;;;;;;;5.68;85.25;99300.09;5021215;28;20208;-73
2020/12/07 02:59:52;;;;;;;27.93;23.60;;;;;;;5.56;86.50;99294.81;5020915;28;20461;-73
2020/12/07 03:02:17;;;;;;;28.07;22.73;;;;;;;5.55;86.33;99287.94;5020966;28;20459;-73
2020/12/07 03:04:42;;;;;;;28.10;23.93;;;;;;;5.66;85.96;99281.09;5020871;28;20249;-74
2020/12/07 03:07:08;;;;;;;25.03;22.30;;;;;;;5.43;86.09;99268.03;5021027;28;20174;-73
2020/12/07 03:09:34;;;;;;;27.07;23.27;;;;;;;5.54;87.52;99275.88;5020680;28;20185;-72
2020/12/07 03:11:59;;;;;;;26.30;23.50;;;;;;;5.76;86.06;99276.00;5020725;28;20179;-73
2020/12/07 03:14:25;;;;;;;27.60;23.37;;;;;;;5.82;85.73;99276.88;5021066;28;20175;-72
2020/12/07 03:16:51;;;;;;;25.17;22.40;;;;;;;5.87;85.44;99276.91;5020657;28;20556;-71
2020/12/07 03:19:16;;;;;;;27.93;23.50;;;;;;;5.72;85.90;99280.28;5020378;28;20444;-73
2020/12/07 03:21:42;;;;;;;27.33;22.73;;;;;;;5.69;86.66;99275.94;5020837;28;20843;-72
2020/12/07 03:24:07;;;;;;;27.50;23.60;;;;;;;5.51;87.19;99268.09;5020260;28;20727;-73
2020/12/07 03:26:33;;;;;;;29.00;23.90;;;;;;;5.55;86.95;99259.50;5020608;28;20175;-72
2020/12/07 03:28:58;;;;;;;26.73;23.70;;;;;;;5.54;86.62;99252.59;5020574;28;20167;-72
2020/12/07 03:31:24;;;;;;;26.57;23.60;;;;;;;5.58;86.77;99246.59;5019398;28;20528;-74
2020/12/07 03:33:49;;;;;;;28.23;23.67;;;;;;;5.42;87.83;99244.78;5020253;28;20417;-72
2020/12/07 03:36:15;;;;;;;27.33;23.33;;;;;;;5.61;86.79;99245.75;5020554;28;20179;-72
2020/12/07 03:38:40;;;;;;;28.47;23.83;;;;;;;5.53;86.59;99233.66;5020140;28;20480;-72
2020/12/07 03:41:05;;;;;;;28.30;23.30;;;;;;;5.68;86.23;99222.53;5020151;28;20201;-73
2020/12/07 03:43:31;;;;;;;24.70;21.53;;;;;;;5.64;86.19;99217.31;5020547;28;20551;-72
2020/12/07 03:45:56;;;;;;;26.07;21.90;;;;;;;5.62;86.52;99222.47;5020078;28;20206;-72
2020/12/07 03:48:21;;;;;;;24.00;21.40;;;;;;;5.54;87.67;99219.00;5019950;28;20266;-71
2020/12/07 03:50:46;;;;;;;28.70;22.80;;;;;;;5.64;86.88;99212.16;5020309;28;20189;-71
2020/12/07 03:53:12;;;;;;;25.20;21.60;;;;;;;5.80;87.12;99224.28;5019027;28;20190;-71
2020/12/07 03:55:37;;;;;;;25.30;22.50;;;;;;;5.67;87.67;99231.13;5020040;28;20225;-72
2020/12/07 03:58:02;;;;;;;25.00;21.20;;;;;;;5.65;87.82;99237.16;5020280;28;20544;-71
2020/12/07 04:00:28;;;;;;;27.27;21.27;;;;;;;5.61;87.62;99238.84;5019831;28;20232;-72
2020/12/07 04:02:54;;;;;;;25.53;21.43;;;;;;;5.82;87.44;99250.16;5019954;28;20225;-72
2020/12/07 04:05:30;;;;;;;24.33;21.60;;;;;;;5.80;87.15;99237.22;5020170;28;20199;-72
2020/12/07 04:07:55;;;;;;;24.87;21.23;;;;;;;5.94;86.51;99237.28;5019936;28;20421;-71
2020/12/07 04:10:20;;;;;;;25.90;21.53;;;;;;;5.99;87.88;99232.16;5019724;28;20452;-72
2020/12/07 04:12:46;;;;;;;26.10;21.50;;;;;;;6.02;86.95;99227.88;5019664;28;20179;-72
2020/12/07 04:15:11;;;;;;;24.17;20.83;;;;;;;5.85;86.68;99213.97;5019826;28;20245;-73
2020/12/07 04:17:36;;;;;;;23.83;21.07;;;;;;;5.87;87.18;99215.72;5019953;28;20262;-73
2020/12/07 04:20:02;;;;;;;25.07;21.70;;;;;;;6.13;86.25;99224.44;5019318;28;20560;-72
2020/12/07 04:22:27;;;;;;;25.97;22.23;;;;;;;6.22;85.73;99224.47;5019606;28;20171;-72
2020/12/07 04:24:53;;;;;;;23.73;20.77;;;;;;;6.17;86.42;99218.41;5019478;28;20226;-72
2020/12/07 04:27:18;;;;;;;26.17;21.50;;;;;;;6.03;86.07;99231.31;5019598;28;20194;-72
2020/12/07 04:29:43;;;;;;;26.60;20.60;;;;;;;6.06;85.65;99227.03;5019694;28;20436;-73
2020/12/07 04:32:09;;;;;;;25.33;21.10;;;;;;;6.28;85.56;99221.91;5019453;28;20221;-72
2020/12/07 04:34:34;;;;;;;24.60;20.10;;;;;;;6.21;85.42;99231.38;5019332;28;20274;-73
2020/12/07 04:36:59;;;;;;;22.97;20.43;;;;;;;6.01;85.63;99236.47;5019616;28;20177;-73
2020/12/07 04:39:25;;;;;;;23.27;20.53;;;;;;;5.98;86.33;99231.31;5019215;28;20187;-72
2020/12/07 04:41:50;;;;;;;24.10;20.40;;;;;;;6.06;85.56;99244.25;5019154;28;20171;-72
2020/12/07 04:44:17;;;;;;;21.10;18.90;;;;;;;6.06;85.53;99244.25;5019440;28;20217;-72
2020/12/07 04:46:43;;;;;;;23.93;20.50;;;;;;;6.14;85.46;99252.03;5019202;28;20171;-72
2020/12/07 04:49:09;;;;;;;22.00;19.03;;;;;;;6.30;85.71;99248.66;5018311;28;20418;-73
2020/12/07 04:51:36;;;;;;;27.37;20.40;;;;;;;6.23;85.01;99247.75;5019492;28;20174;-73
2020/12/07 04:54:02;;;;;;;21.70;18.70;;;;;;;6.31;85.31;99239.19;5018204;28;20167;-73
2020/12/07 04:56:28;;;;;;;20.93;18.73;;;;;;;6.06;85.23;99237.38;5018195;28;21081;-73
2020/12/07 04:58:54;;;;;;;24.67;19.97;;;;;;;6.24;85.04;99235.72;5019231;28;20410;-72
2020/12/07 05:01:19;;;;;;;23.43;19.40;;;;;;;6.31;84.26;99239.19;5018129;28;20222;-72
2020/12/07 05:03:44;;;;;;;21.40;18.40;;;;;;;6.19;85.12;99240.00;5017629;28;20550;-71
2020/12/07 05:06:13;;;;;;;22.97;19.93;;;;;;;6.03;85.27;99236.47;5019105;28;20171;-72
2020/12/07 05:08:38;;;;;;;20.73;18.60;;;;;;;6.14;85.33;99244.28;5018557;28;20175;-72
2020/12/07 05:11:04;;;;;;;25.20;19.80;;;;;;;5.96;86.05;99224.38;5018604;28;20436;-72
2020/12/07 05:13:39;;;;;;;23.93;19.57;;;;;;;6.23;85.46;99218.44;5019032;28;20178;-71
2020/12/07 05:16:04;;;;;;;20.20;18.10;;;;;;;6.11;85.50;99210.66;5018643;28;20190;-71
2020/12/07 05:18:37;;;;;;;18.97;17.10;;;;;;;6.03;85.38;99208.03;5018342;28;20894;-72
2020/12/07 05:21:03;;;;;;;21.40;18.63;;;;;;;6.11;85.69;99195.13;5018536;28;20171;-72
2020/12/07 05:23:34;;;;;;;21.10;18.90;;;;;;;6.22;84.63;99185.66;5018106;28;20473;-71
2020/12/07 05:25:59;;;;;;;20.87;17.83;;;;;;;6.04;84.99;99195.09;5018266;28;20476;-72
2020/12/07 05:28:29;;;;;;;22.23;17.93;;;;;;;6.03;85.34;99205.44;5017541;28;20426;-72
2020/12/07 05:30:58;;;;;;;24.20;19.40;;;;;;;6.24;85.27;99215.00;5017964;28;20170;-72
2020/12/07 05:33:23;;;;;;;21.10;17.83;;;;;;;6.15;85.21;99217.56;5018352;28;20497;-73
2020/12/07 05:35:52;;;;;;;21.60;16.80;;;;;;;6.11;85.04;99215.81;5018416;28;20504;-72
2020/12/07 05:38:18;;;;;;;18.87;16.47;;;;;;;6.23;84.51;99224.47;5018368;28;20163;-72
2020/12/07 05:40:43;;;;;;;22.40;18.50;;;;;;;6.34;84.79;99216.72;5018063;28;20833;-72
2020/12/07 05:43:09;;;;;;;20.73;18.03;;;;;;;6.28;84.71;99214.16;5018108;28;20544;-71
2020/12/07 05:45:35;;;;;;;20.83;17.93;;;;;;;6.26;84.82;99208.09;5017445;28;20221;-71
2020/12/07 05:48:01;;;;;;;20.77;18.57;;;;;;;6.25;84.71;99214.13;5017442;28;20183;-71
2020/12/07 05:50:27;;;;;;;20.07;16.80;;;;;;;6.13;84.44;99198.56;5017772;28;20221;-72
2020/12/07 05:52:53;;;;;;;19.80;17.70;;;;;;;6.20;84.34;99205.50;5018177;28;20418;-71
2020/12/07 05:55:19;;;;;;;21.93;17.90;;;;;;;6.16;84.39;99198.59;5017653;28;20591;-72
2020/12/07 05:58:10;;;;;;;22.03;17.87;;;;;;;6.31;84.72;99183.09;5017889;28;20452;-72
2020/12/07 06:00:37;;;;;;;20.20;17.80;;;;;;;6.17;84.21;99180.47;5017148;28;20449;-73
2020/12/07 06:03:06;;;;;;;21.10;17.07;;;;;;;6.53;84.70;99188.28;5017713;28;20521;-73
2020/12/07 06:05:31;;;;;;;22.90;19.00;;;;;;;6.37;84.02;99192.59;5017575;28;20514;-73
2020/12/07 06:08:05;;;;;;;20.33;17.53;;;;;;;6.54;84.16;99210.75;5017444;28;20509;-72
2020/12/07 06:10:34;;;;;;;24.70;17.80;;;;;;;6.36;83.58;99212.44;5016659;28;20181;-72
2020/12/07 06:13:03;;;;;;;19.33;17.13;;;;;;;6.50;83.74;99206.44;5016713;28;20426;-72
2020/12/07 06:15:30;;;;;;;23.83;17.23;;;;;;;6.58;83.04;99215.06;5017581;28;20428;-72
2020/12/07 06:17:55;;;;;;;18.77;16.77;;;;;;;6.51;82.88;99211.59;5017617;28;20442;-71
2020/12/07 06:20:30;;;;;;;18.10;16.23;;;;;;;6.38;82.98;99202.94;5017257;28;20481;-73
2020/12/07 06:22:56;;;;;;;20.67;15.90;;;;;;;6.35;83.91;99195.19;5016548;28;20174;-71
2020/12/07 06:25:27;;;;;;;21.53;17.00;;;;;;;6.29;83.72;99187.41;5017526;28;20914;-71
2020/12/07 06:27:53;;;;;;;20.20;18.00;;;;;;;6.28;83.89;99193.44;5017744;28;20426;-71
2020/12/07 06:30:19;;;;;;;19.33;16.90;;;;;;;6.31;83.25;99187.41;5017229;28;20661;-74
2020/12/07 06:32:50;;;;;;;22.33;17.20;;;;;;;6.40;82.90;99198.63;5017538;28;20572;-73
2020/12/07 06:35:15;;;;;;;18.83;16.93;;;;;;;6.54;83.51;99200.38;5017777;28;20406;-76
2020/12/07 06:37:42;;;;;;;17.90;15.53;;;;;;;6.50;83.36;99209.88;5017422;28;20425;-74
2020/12/07 06:40:08;;;;;;;18.67;16.57;;;;;;;6.40;82.47;99202.97;5017543;28;20710;-70
2020/12/07 06:42:39;;;;;;;18.80;16.60;;;;;;;6.45;82.96;99205.53;5017798;28;20417;-70
2020/12/07 06:45:07;;;;;;;20.90;17.10;;;;;;;6.32;83.50;99197.75;5017397;28;20583;-70
2020/12/07 06:47:33;;;;;;;17.93;15.70;;;;;;;6.25;83.08;99180.47;5017178;28;20423;-70
2020/12/07 06:50:07;;;;;;;18.50;16.03;;;;;;;6.27;82.23;99186.53;5016641;28;20414;-70
2020/12/07 06:52:36;;;;;;;20.50;16.37;;;;;;;6.33;82.75;99188.25;5017045;28;20175;-71
2020/12/07 06:55:07;;;;;;;20.70;17.07;;;;;;;6.20;83.46;99184.81;5016912;28;20426;-71
2020/12/07 06:57:47;;;;;;;19.60;16.27;;;;;;;6.31;82.77;99190.84;5017340;28;20422;-71
2020/12/07 07:00:14;;;;;;;18.03;15.97;;;;;;;6.28;82.59;99198.63;5017027;28;20715;-70
2020/12/07 07:02:48;;;;;;;20.50;16.83;;;;;;;6.32;82.66;99213.28;5016392;28;20814;-70
2020/12/07 07:05:15;;;;;;;17.53;15.73;;;;;;;6.34;82.43;99214.16;5016969;28;20466;-71
2020/12/07 07:07:41;;;;;;;17.33;15.53;;;;;;;6.25;82.67;99224.47;5017088;28;20422;-74
2020/12/07 07:10:08;;;;;;;18.73;16.37;;;;;;;6.30;82.72;99227.94;5016922;28;20450;-74
2020/12/07 07:12:34;;;;;;;20.90;17.80;;;;;;;6.33;82.58;99215.03;5017456;28;20182;-74
2020/12/07 07:15:00;;;;;;;22.40;17.13;;;;;;;6.44;81.88;99221.94;5016927;28;20429;-75
2020/12/07 07:17:29;;;;;;;19.10;17.10;;;;;;;6.40;81.81;99221.09;5016267;28;20661;-76
2020/12/07 07:19:55;;;;;;;20.63;16.20;;;;;;;6.44;82.11;99219.34;5017031;28;20191;-74
2020/12/07 07:22:20;;;;;;;20.07;16.90;;;;;;;6.51;81.86;99219.38;5016988;28;20886;-75
2020/12/07 07:30:04;;;;;;;19.43;16.67;;;;;;;6.49;81.37;99233.16;5020466;28;20877;-73
2020/12/07 07:32:31;;;;;;;20.73;16.70;;;;;;;6.45;81.41;99231.44;5020035;28;20417;-74
2020/12/07 07:34:57;;;;;;;21.30;17.10;;;;;;;6.54;80.82;99231.44;5020586;28;20422;-73
2020/12/07 07:37:22;;;;;;;18.60;15.70;;;;;;;6.54;81.11;99226.28;5020455;28;20464;-75
2020/12/07 07:39:57;;;;;;;19.33;16.13;;;;;;;6.47;81.87;99229.69;5020578;28;20167;-75
2020/12/07 07:42:23;;;;;;;20.00;16.30;;;;;;;6.55;81.80;99231.44;5020421;28;20174;-74
2020/12/07 07:44:48;;;;;;;19.40;16.50;;;;;;;6.52;81.15;99227.97;5020492;28;20888;-73
2020/12/07 07:47:27;;;;;;;19.70;17.57;;;;;;;6.46;81.44;99244.38;5019605;28;20186;-73
2020/12/07 07:53:11;;;;;;;20.23;16.63;;;;;;;6.52;81.30;99247.00;5019479;28;20690;-74
2020/12/07 08:01:48;;;;;;;20.90;16.87;;;;;;;6.58;81.42;99257.34;5019328;28;20457;-74
2020/12/07 08:12:52;;;;;;;17.80;15.33;;;;;;;6.46;81.99;99259.91;5019747;28;20421;-75
2020/12/07 08:18:08;;;;;;;34.33;17.83;;;;;;;6.33;82.23;99259.03;5029702;28;20478;-75
2020/12/07 08:20:39;;;;;;;20.23;17.13;;;;;;;6.50;81.85;99253.88;5039096;28;20527;-79
2020/12/07 08:23:06;;;;;;;19.37;17.27;;;;;;;6.46;81.87;99264.22;5038418;28;20174;-75
2020/12/07 08:25:45;;;;;;;18.27;15.90;;;;;;;6.42;81.58;99271.13;5038145;28;20438;-72
2020/12/07 08:28:29;;;;;;;19.97;16.10;;;;;;;6.38;82.68;99288.34;5028467;28;20738;-72
2020/12/07 08:31:14;;;;;;;21.70;18.07;;;;;;;6.44;82.13;99278.88;5022548;28;20433;-70
2020/12/07 08:33:53;;;;;;;19.60;17.00;;;;;;;6.36;82.27;99278.84;5039022;28;20423;-71
2020/12/07 08:36:18;;;;;;;18.20;16.30;;;;;;;6.35;82.63;99278.00;5038915;28;20873;-70
2020/12/07 08:38:45;;;;;;;21.27;17.93;;;;;;;6.31;82.41;99280.59;5037687;28;20424;-72
2020/12/07 08:41:13;;;;;;;21.27;17.03;;;;;;;6.36;82.64;99284.03;5038880;28;20543;-72
2020/12/07 08:43:40;;;;;;;19.70;17.60;;;;;;;6.28;82.99;99285.72;5039401;28;20405;-72
2020/12/07 08:46:07;;;;;;;18.77;16.80;;;;;;;6.22;83.50;99302.09;5038721;28;20469;-71
2020/12/07 08:48:33;;;;;;;22.83;18.27;;;;;;;6.24;83.41;99293.50;5038554;28;20413;-72
2020/12/07 08:50:59;;;;;;;20.23;17.20;;;;;;;6.27;83.14;99276.25;5038882;28;20417;-73
2020/12/07 08:53:24;;;;;;;21.00;17.13;;;;;;;6.12;83.79;99279.66;5038706;28;20420;-72
2020/12/07 08:55:50;;;;;;;19.63;17.00;;;;;;;6.23;83.91;99288.31;5038661;28;20185;-72
2020/12/07 08:58:15;;;;;;;19.33;17.33;;;;;;;6.18;83.38;99282.25;5038747;28;20185;-72
2020/12/07 09:00:41;;;;;;;20.13;17.53;;;;;;;6.11;83.69;99280.50;5038530;28;20203;-71
2020/12/07 09:03:06;;;;;;;21.70;18.97;;;;;;;6.27;83.46;99284.88;5038236;28;20177;-72
2020/12/07 09:05:32;;;;;;;19.57;17.50;;;;;;;6.25;83.66;99286.56;5038751;28;20182;-72
2020/12/07 09:07:57;;;;;;;19.73;17.63;;;;;;;6.17;83.73;99293.44;5038515;28;20555;-71
2020/12/07 09:10:22;;;;;;;23.47;18.47;;;;;;;6.23;83.13;99301.25;5038343;28;20477;-71
2020/12/07 09:12:48;;;;;;;24.63;18.73;;;;;;;6.23;83.45;99303.84;5038708;28;20539;-71
2020/12/07 09:15:13;;;;;;;21.20;18.70;;;;;;;6.16;84.33;99292.59;5038206;28;20170;-72
2020/12/07 09:17:38;;;;;;;20.27;16.80;;;;;;;6.28;83.48;99296.97;5038066;28;20249;-72
2020/12/07 09:20:04;;;;;;;21.77;18.07;;;;;;;6.20;84.14;99288.31;5038240;28;20201;-72
2020/12/07 09:22:30;;;;;;;19.70;17.40;;;;;;;6.03;84.92;99299.44;5038079;28;20179;-71
2020/12/07 09:24:55;;;;;;;20.10;18.00;;;;;;;6.16;84.28;99296.91;5037822;28;20484;-71
2020/12/07 09:27:20;;;;;;;21.87;18.10;;;;;;;6.08;84.15;99296.88;5038456;28;20171;-71
2020/12/07 09:29:45;;;;;;;20.73;18.53;;;;;;;6.11;84.63;99304.66;5037720;28;20547;-71
2020/12/07 09:32:11;;;;;;;23.20;19.40;;;;;;;6.08;84.72;99307.22;5037892;28;20158;-71
2020/12/07 09:34:37;;;;;;;22.90;19.80;;;;;;;6.02;85.52;99321.00;5038125;28;20201;-71
2020/12/07 09:37:03;;;;;;;24.67;20.90;;;;;;;6.02;84.60;99300.31;5037820;28;20166;-70
2020/12/07 09:39:28;;;;;;;24.50;19.50;;;;;;;6.06;85.01;99314.97;5037587;28;20721;-71
2020/12/07 09:41:53;;;;;;;25.13;20.10;;;;;;;5.98;85.21;99314.09;5038035;28;20547;-72
2020/12/07 09:44:19;;;;;;;24.93;20.60;;;;;;;6.06;85.15;99319.28;5037585;28;20197;-72
2020/12/07 09:46:44;;;;;;;22.03;19.63;;;;;;;6.12;84.77;99336.56;5037625;28;20240;-72
2020/12/07 09:49:09;;;;;;;22.60;19.37;;;;;;;6.07;85.07;99340.00;5037737;28;20182;-73
2020/12/07 09:51:35;;;;;;;24.27;21.07;;;;;;;5.95;84.95;99328.69;5037209;28;20170;-72
2020/12/07 09:54:00;;;;;;;26.07;20.30;;;;;;;5.99;85.32;99326.13;5037536;28;20535;-72
2020/12/07 09:56:29;;;;;;;25.20;22.43;;;;;;;6.09;85.30;99326.19;5037878;28;20216;-72
2020/12/07 09:58:56;;;;;;;27.47;22.70;;;;;;;5.97;85.40;99324.41;5037239;28;20188;-72
2020/12/07 10:01:21;;;;;;;23.47;21.00;;;;;;;5.97;85.23;99306.28;5037324;28;20496;-72
2020/12/07 10:03:46;;;;;;;23.43;20.60;;;;;;;6.02;84.89;99308.06;5037363;28;20837;-71
2020/12/07 10:06:11;;;;;;;25.20;20.87;;;;;;;6.02;84.57;99313.25;5037113;28;20301;-72
2020/12/07 10:08:37;;;;;;;27.00;22.90;;;;;;;6.09;84.59;99315.84;5036995;28;20178;-72
2020/12/07 10:11:02;;;;;;;25.40;21.67;;;;;;;5.94;85.34;99325.25;5037325;28;20484;-72
2020/12/07 10:13:28;;;;;;;25.07;21.70;;;;;;;6.04;84.61;99319.28;5037211;28;20182;-72
2020/12/07 10:15:53;;;;;;;31.03;23.40;;;;;;;5.92;84.76;99332.09;5037132;28;20539;-72
2020/12/07 10:18:18;;;;;;;26.57;22.00;;;;;;;5.84;85.59;99333.78;5037336;28;20177;-72
2020/12/07 10:20:45;;;;;;;26.40;23.60;;;;;;;5.92;85.07;99329.53;5037107;28;20175;-72
2020/12/07 10:23:11;;;;;;;27.97;24.00;;;;;;;5.98;84.54;99326.13;5036559;28;20234;-72
2020/12/07 10:25:36;;;;;;;30.30;24.53;;;;;;;6.19;84.54;99330.56;5037173;28;20452;-72
2020/12/07 10:28:02;;;;;;;27.23;22.97;;;;;;;6.23;83.91;99332.31;5036641;28;20486;-72
2020/12/07 10:30:27;;;;;;;29.83;23.80;;;;;;;6.03;84.26;99317.53;5036606;28;20543;-72
2020/12/07 10:32:52;;;;;;;26.47;23.67;;;;;;;6.04;83.67;99324.44;5037012;28;20201;-72
2020/12/07 10:35:17;;;;;;;34.57;24.37;;;;;;;6.12;82.71;99321.91;5036070;28;20185;-72
2020/12/07 10:37:45;;;;;;;30.13;24.80;;;;;;;5.98;83.42;99328.72;5036950;28;20178;-71
2020/12/07 10:40:10;;;;;;;28.40;22.33;;;;;;;6.03;82.13;99333.06;5036987;28;20450;-72
2020/12/07 10:42:36;;;;;;;29.40;23.50;;;;;;;6.19;82.56;99333.16;5036813;28;20425;-78
2020/12/07 10:45:01;;;;;;;30.57;24.07;;;;;;;6.15;81.33;99321.91;5036520;28;20244;-72
2020/12/07 10:47:26;;;;;;;26.80;23.17;;;;;;;5.97;82.38;99333.00;5036842;28;20200;-74
2020/12/07 10:49:52;;;;;;;27.57;23.40;;;;;;;6.06;82.04;99340.84;5036642;28;20174;-72
2020/12/07 10:52:17;;;;;;;30.70;24.30;;;;;;;6.01;81.74;99341.69;5036701;28;20224;-74
2020/12/07 10:54:43;;;;;;;34.00;25.57;;;;;;;6.00;81.63;99361.50;5037084;28;20169;-73
2020/12/07 10:57:08;;;;;;;31.73;25.30;;;;;;;5.76;82.87;99369.09;5036617;28;20477;-72
2020/12/07 10:59:33;;;;;;;31.10;25.73;;;;;;;5.94;81.61;99368.34;5036453;28;20506;-72
2020/12/07 11:01:59;;;;;;;32.03;24.17;;;;;;;5.95;81.30;99372.66;5039141;28;20174;-71
2020/12/07 11:04:24;;;;;;;27.70;24.13;;;;;;;5.97;80.01;99366.63;5040401;28;20209;-72
2020/12/07 11:06:51;;;;;;;27.83;22.93;;;;;;;5.76;79.13;99369.94;5040586;28;20229;-76
2020/12/07 11:09:23;;;;;;;18.60;15.33;;;;;;;9.59;88.94;99358.47;5040646;28;20166;-70
2020/12/07 11:11:49;;;;;;;24.60;20.13;;;;;;;8.23;68.79;99374.81;5040177;28;20820;-75
2020/12/07 11:14:14;;;;;;;26.10;20.00;;;;;;;6.47;73.75;99395.38;5040224;28;20417;-69
2020/12/07 11:16:39;;;;;;;20.90;17.83;;;;;;;5.88;76.02;99416.56;5040503;28;20412;-69
2020/12/07 11:19:05;;;;;;;20.57;17.10;;;;;;;5.68;77.04;99410.38;5040068;28;20185;-69
2020/12/07 11:21:30;;;;;;;22.20;17.37;;;;;;;5.56;76.87;99413.72;5040093;28;20513;-70
2020/12/07 11:23:55;;;;;;;24.87;18.80;;;;;;;5.52;77.24;99424.91;5039959;28;20602;-70
2020/12/07 11:26:21;;;;;;;22.80;18.43;;;;;;;5.26;78.02;99422.94;5040259;28;20265;-71
2020/12/07 11:28:46;;;;;;;21.47;17.60;;;;;;;5.35;77.41;99406.66;5040055;28;20177;-70
2020/12/07 11:31:14;;;;;;;24.27;19.00;;;;;;;5.34;76.69;99412.69;5039148;28;20166;-71
2020/12/07 11:33:39;;;;;;;23.73;19.13;;;;;;;5.39;77.89;99398.94;5039981;28;20320;-70
2020/12/07 11:36:05;;;;;;;25.60;20.23;;;;;;;5.19;78.30;99403.94;5040223;28;20518;-70
2020/12/07 11:38:38;;;;;;;28.10;19.43;;;;;;;5.18;78.90;99416.81;5039915;28;20249;-70
2020/12/07 11:41:19;;;;;;;24.50;19.07;;;;;;;5.35;77.94;99404.09;5039933;28;20163;-71
2020/12/07 11:43:53;;;;;;;26.23;20.80;;;;;;;5.35;77.71;99407.53;5039830;28;20509;-70
2020/12/07 11:46:27;;;;;;;26.13;20.60;;;;;;;5.44;77.73;99406.75;5039657;28;20716;-71
2020/12/07 11:48:52;;;;;;;24.83;19.40;;;;;;;5.54;77.05;99410.28;5039664;28;20420;-70